sensor_id;sensor_type;location;lat;lon;timestamp;P1;durP1;ratioP1;P2;durP2;ratioP2
72049;SDS011;59916;50.914;5.888;2022-08-01T00:00:20;2.30;;;1.50;;
72049;SDS011;59916;50.914;5.888;2022-08-01T00:02:45;3.10;;;1.83;;
72049;SDS011;59916;50.914;5.888;2022-08-01T00:05:11;2.77;;;1.80;;
72049;SDS011;59916;50.914;5.888;2022-08-01T00:07:37;3.45;;;1.73;;
72049;SDS011;59916;50.914;5.888;2022-08-01T00:10:03;3.00;;;1.83;;
72049;SDS011;59916;50.914;5.888;2022-08-01T00:12:33;2.95;;;1.63;;
72049;SDS011;59916;50.914;5.888;2022-08-01T00:14:58;4.00;;;1.70;;
72049;SDS011;59916;50.914;5.888;2022-08-01T00:17:24;2.65;;;1.27;;
72049;SDS011;59916;50.914;5.888;2022-08-01T00:19:49;1.93;;;1.50;;
72049;SDS011;59916;50.914;5.888;2022-08-01T00:22:14;3.30;;;1.70;;
72049;SDS011;59916;50.914;5.888;2022-08-01T00:24:40;2.77;;;1.80;;
72049;SDS011;59916;50.914;5.888;2022-08-01T00:27:05;2.90;;;1.77;;
72049;SDS011;59916;50.914;5.888;2022-08-01T00:29:30;2.47;;;1.60;;
72049;SDS011;59916;50.914;5.888;2022-08-01T00:31:56;3.80;;;1.63;;
72049;SDS011;59916;50.914;5.888;2022-08-01T00:34:21;2.40;;;1.70;;
72049;SDS011;59916;50.914;5.888;2022-08-01T00:36:46;2.90;;;1.63;;
72049;SDS011;59916;50.914;5.888;2022-08-01T00:39:12;3.13;;;1.40;;
72049;SDS011;59916;50.914;5.888;2022-08-01T00:41:37;2.47;;;1.70;;
72049;SDS011;59916;50.914;5.888;2022-08-01T00:44:04;2.20;;;1.60;;
72049;SDS011;59916;50.914;5.888;2022-08-01T00:46:30;2.47;;;1.65;;
72049;SDS011;59916;50.914;5.888;2022-08-01T00:48:56;2.77;;;1.70;;
72049;SDS011;59916;50.914;5.888;2022-08-01T00:51:22;2.90;;;1.67;;
72049;SDS011;59916;50.914;5.888;2022-08-01T00:53:48;2.00;;;1.47;;
72049;SDS011;59916;50.914;5.888;2022-08-01T00:56:15;2.50;;;1.52;;
72049;SDS011;59916;50.914;5.888;2022-08-01T00:58:41;1.73;;;1.40;;
72049;SDS011;59916;50.914;5.888;2022-08-01T01:01:07;3.22;;;1.70;;
72049;SDS011;59916;50.914;5.888;2022-08-01T01:03:32;2.47;;;1.70;;
72049;SDS011;59916;50.914;5.888;2022-08-01T01:06:41;2.63;;;1.70;;
72049;SDS011;59916;50.914;5.888;2022-08-01T01:09:09;3.22;;;1.70;;
72049;SDS011;59916;50.914;5.888;2022-08-01T01:11:55;2.10;;;1.48;;
72049;SDS011;59916;50.914;5.888;2022-08-01T01:14:37;2.53;;;1.70;;
72049;SDS011;59916;50.914;5.888;2022-08-01T01:17:11;3.73;;;1.70;;
72049;SDS011;59916;50.914;5.888;2022-08-01T01:19:41;1.90;;;1.52;;
72049;SDS011;59916;50.914;5.888;2022-08-01T01:24:48;2.08;;;1.55;;
72049;SDS011;59916;50.914;5.888;2022-08-01T01:29:58;2.53;;;1.43;;
72049;SDS011;59916;50.914;5.888;2022-08-01T01:32:33;1.77;;;1.33;;
72049;SDS011;59916;50.914;5.888;2022-08-01T01:35:04;3.00;;;1.75;;
72049;SDS011;59916;50.914;5.888;2022-08-01T01:37:33;3.08;;;1.60;;
72049;SDS011;59916;50.914;5.888;2022-08-01T01:40:00;2.60;;;1.70;;
72049;SDS011;59916;50.914;5.888;2022-08-01T01:42:27;2.33;;;1.40;;
72049;SDS011;59916;50.914;5.888;2022-08-01T01:44:55;2.47;;;1.65;;
72049;SDS011;59916;50.914;5.888;2022-08-01T01:47:21;2.22;;;1.58;;
72049;SDS011;59916;50.914;5.888;2022-08-01T01:49:48;2.20;;;1.40;;
72049;SDS011;59916;50.914;5.888;2022-08-01T01:52:16;3.17;;;1.70;;
72049;SDS011;59916;50.914;5.888;2022-08-01T01:54:44;2.30;;;1.47;;
72049;SDS011;59916;50.914;5.888;2022-08-01T01:57:12;1.85;;;1.40;;
72049;SDS011;59916;50.914;5.888;2022-08-01T01:59:39;2.00;;;1.50;;
72049;SDS011;59916;50.914;5.888;2022-08-01T02:02:06;2.15;;;1.48;;
72049;SDS011;59916;50.914;5.888;2022-08-01T02:04:34;2.42;;;1.58;;
72049;SDS011;59916;50.914;5.888;2022-08-01T02:07:01;2.13;;;1.50;;
72049;SDS011;59916;50.914;5.888;2022-08-01T02:09:28;2.72;;;1.48;;
72049;SDS011;59916;50.914;5.888;2022-08-01T02:11:56;2.42;;;1.55;;
72049;SDS011;59916;50.914;5.888;2022-08-01T02:14:23;1.88;;;1.40;;
72049;SDS011;59916;50.914;5.888;2022-08-01T02:16:49;2.90;;;1.67;;
72049;SDS011;59916;50.914;5.888;2022-08-01T02:19:18;2.20;;;1.60;;
72049;SDS011;59916;50.914;5.888;2022-08-01T02:21:49;2.00;;;1.50;;
72049;SDS011;59916;50.914;5.888;2022-08-01T02:27:11;2.00;;;1.45;;
72049;SDS011;59916;50.914;5.888;2022-08-01T02:29:59;2.78;;;1.67;;
72049;SDS011;59916;50.914;5.888;2022-08-01T02:32:39;1.67;;;1.33;;
72049;SDS011;59916;50.914;5.888;2022-08-01T02:35:26;2.00;;;1.60;;
72049;SDS011;59916;50.914;5.888;2022-08-01T02:37:53;2.45;;;1.45;;
72049;SDS011;59916;50.914;5.888;2022-08-01T02:40:21;2.13;;;1.38;;
72049;SDS011;59916;50.914;5.888;2022-08-01T02:42:49;2.97;;;1.77;;
72049;SDS011;59916;50.914;5.888;2022-08-01T02:45:20;2.23;;;1.57;;
72049;SDS011;59916;50.914;5.888;2022-08-01T02:47:49;2.08;;;1.50;;
72049;SDS011;59916;50.914;5.888;2022-08-01T02:50:16;3.08;;;1.80;;
72049;SDS011;59916;50.914;5.888;2022-08-01T02:52:43;1.90;;;1.50;;
72049;SDS011;59916;50.914;5.888;2022-08-01T02:55:13;1.80;;;1.25;;
72049;SDS011;59916;50.914;5.888;2022-08-01T02:57:38;2.03;;;1.30;;
72049;SDS011;59916;50.914;5.888;2022-08-01T03:00:07;2.53;;;1.75;;
72049;SDS011;59916;50.914;5.888;2022-08-01T03:02:32;3.33;;;1.50;;
72049;SDS011;59916;50.914;5.888;2022-08-01T03:04:59;2.10;;;1.35;;
72049;SDS011;59916;50.914;5.888;2022-08-01T03:07:27;2.03;;;1.30;;
72049;SDS011;59916;50.914;5.888;2022-08-01T03:09:55;2.25;;;1.55;;
72049;SDS011;59916;50.914;5.888;2022-08-01T03:12:25;1.95;;;1.70;;
72049;SDS011;59916;50.914;5.888;2022-08-01T03:14:54;3.20;;;1.70;;
72049;SDS011;59916;50.914;5.888;2022-08-01T03:17:23;2.00;;;1.60;;
72049;SDS011;59916;50.914;5.888;2022-08-01T03:19:52;2.03;;;1.57;;
72049;SDS011;59916;50.914;5.888;2022-08-01T03:22:18;2.03;;;1.60;;
72049;SDS011;59916;50.914;5.888;2022-08-01T03:24:49;3.38;;;1.83;;
72049;SDS011;59916;50.914;5.888;2022-08-01T03:27:16;1.63;;;1.38;;
72049;SDS011;59916;50.914;5.888;2022-08-01T03:29:44;2.58;;;1.50;;
72049;SDS011;59916;50.914;5.888;2022-08-01T03:32:10;2.27;;;1.50;;
72049;SDS011;59916;50.914;5.888;2022-08-01T03:34:37;2.17;;;1.45;;
72049;SDS011;59916;50.914;5.888;2022-08-01T03:37:11;3.40;;;1.50;;
72049;SDS011;59916;50.914;5.888;2022-08-01T03:39:46;2.35;;;1.67;;
72049;SDS011;59916;50.914;5.888;2022-08-01T03:42:16;2.42;;;1.60;;
72049;SDS011;59916;50.914;5.888;2022-08-01T03:44:46;2.10;;;1.80;;
72049;SDS011;59916;50.914;5.888;2022-08-01T03:47:17;2.45;;;1.73;;
72049;SDS011;59916;50.914;5.888;2022-08-01T03:49:47;2.93;;;1.80;;
72049;SDS011;59916;50.914;5.888;2022-08-01T03:52:14;2.83;;;1.90;;
72049;SDS011;59916;50.914;5.888;2022-08-01T03:54:43;2.42;;;1.70;;
72049;SDS011;59916;50.914;5.888;2022-08-01T03:57:12;2.10;;;1.70;;
72049;SDS011;59916;50.914;5.888;2022-08-01T03:59:39;3.03;;;1.92;;
72049;SDS011;59916;50.914;5.888;2022-08-01T04:02:05;2.20;;;1.70;;
72049;SDS011;59916;50.914;5.888;2022-08-01T04:04:31;2.45;;;1.60;;
72049;SDS011;59916;50.914;5.888;2022-08-01T04:06:57;2.75;;;1.70;;
72049;SDS011;59916;50.914;5.888;2022-08-01T04:09:28;1.97;;;1.50;;
72049;SDS011;59916;50.914;5.888;2022-08-01T04:11:54;2.50;;;1.67;;
72049;SDS011;59916;50.914;5.888;2022-08-01T04:14:20;2.37;;;1.70;;
72049;SDS011;59916;50.914;5.888;2022-08-01T04:16:45;2.27;;;1.70;;
72049;SDS011;59916;50.914;5.888;2022-08-01T04:19:11;2.35;;;1.85;;
72049;SDS011;59916;50.914;5.888;2022-08-01T04:21:36;2.30;;;1.80;;
72049;SDS011;59916;50.914;5.888;2022-08-01T04:24:04;2.17;;;1.60;;
72049;SDS011;59916;50.914;5.888;2022-08-01T04:26:32;2.28;;;1.70;;
72049;SDS011;59916;50.914;5.888;2022-08-01T04:29:01;2.88;;;1.70;;
72049;SDS011;59916;50.914;5.888;2022-08-01T04:31:30;2.07;;;1.50;;
72049;SDS011;59916;50.914;5.888;2022-08-01T04:33:58;1.80;;;1.42;;
72049;SDS011;59916;50.914;5.888;2022-08-01T04:36:26;1.83;;;1.52;;
72049;SDS011;59916;50.914;5.888;2022-08-01T04:38:56;2.63;;;1.80;;
72049;SDS011;59916;50.914;5.888;2022-08-01T04:41:24;2.50;;;1.90;;
72049;SDS011;59916;50.914;5.888;2022-08-01T04:43:51;2.50;;;1.80;;
72049;SDS011;59916;50.914;5.888;2022-08-01T04:46:17;2.38;;;1.65;;
72049;SDS011;59916;50.914;5.888;2022-08-01T04:48:42;2.00;;;1.75;;
72049;SDS011;59916;50.914;5.888;2022-08-01T04:51:13;3.00;;;1.50;;
72049;SDS011;59916;50.914;5.888;2022-08-01T04:53:40;2.15;;;1.58;;
72049;SDS011;59916;50.914;5.888;2022-08-01T04:56:06;2.40;;;1.70;;
72049;SDS011;59916;50.914;5.888;2022-08-01T04:58:32;2.57;;;1.70;;
72049;SDS011;59916;50.914;5.888;2022-08-01T05:00:57;2.50;;;1.90;;
72049;SDS011;59916;50.914;5.888;2022-08-01T05:03:22;2.57;;;1.87;;
72049;SDS011;59916;50.914;5.888;2022-08-01T05:05:48;2.57;;;1.83;;
72049;SDS011;59916;50.914;5.888;2022-08-01T05:08:13;2.80;;;2.00;;
72049;SDS011;59916;50.914;5.888;2022-08-01T05:10:38;2.73;;;2.00;;
72049;SDS011;59916;50.914;5.888;2022-08-01T05:13:04;2.23;;;1.73;;
72049;SDS011;59916;50.914;5.888;2022-08-01T05:15:29;2.43;;;1.80;;
72049;SDS011;59916;50.914;5.888;2022-08-01T05:17:54;2.20;;;1.73;;
72049;SDS011;59916;50.914;5.888;2022-08-01T05:20:21;2.77;;;1.97;;
72049;SDS011;59916;50.914;5.888;2022-08-01T05:22:46;2.50;;;1.80;;
72049;SDS011;59916;50.914;5.888;2022-08-01T05:25:11;2.45;;;1.80;;
72049;SDS011;59916;50.914;5.888;2022-08-01T05:27:37;2.90;;;1.93;;
72049;SDS011;59916;50.914;5.888;2022-08-01T05:30:06;3.67;;;1.90;;
72049;SDS011;59916;50.914;5.888;2022-08-01T05:32:33;3.22;;;1.98;;
72049;SDS011;59916;50.914;5.888;2022-08-01T05:34:58;2.90;;;1.80;;
72049;SDS011;59916;50.914;5.888;2022-08-01T05:37:24;3.10;;;1.92;;
72049;SDS011;59916;50.914;5.888;2022-08-01T05:39:49;2.87;;;2.00;;
72049;SDS011;59916;50.914;5.888;2022-08-01T05:42:15;2.33;;;1.70;;
72049;SDS011;59916;50.914;5.888;2022-08-01T05:44:40;3.00;;;1.90;;
72049;SDS011;59916;50.914;5.888;2022-08-01T05:47:06;2.70;;;2.17;;
72049;SDS011;59916;50.914;5.888;2022-08-01T05:49:31;3.87;;;2.07;;
72049;SDS011;59916;50.914;5.888;2022-08-01T05:51:56;2.77;;;2.00;;
72049;SDS011;59916;50.914;5.888;2022-08-01T05:54:21;2.30;;;1.90;;
72049;SDS011;59916;50.914;5.888;2022-08-01T05:56:47;2.20;;;1.67;;
72049;SDS011;59916;50.914;5.888;2022-08-01T05:59:12;3.77;;;2.20;;
72049;SDS011;59916;50.914;5.888;2022-08-01T06:01:37;3.00;;;2.10;;
72049;SDS011;59916;50.914;5.888;2022-08-01T06:04:02;2.83;;;1.87;;
72049;SDS011;59916;50.914;5.888;2022-08-01T06:06:28;3.88;;;2.28;;
72049;SDS011;59916;50.914;5.888;2022-08-01T06:08:53;4.13;;;2.20;;
72049;SDS011;59916;50.914;5.888;2022-08-01T06:11:19;2.37;;;1.80;;
72049;SDS011;59916;50.914;5.888;2022-08-01T06:13:44;2.60;;;2.17;;
72049;SDS011;59916;50.914;5.888;2022-08-01T06:16:09;3.77;;;2.03;;
72049;SDS011;59916;50.914;5.888;2022-08-01T06:18:35;3.10;;;2.00;;
72049;SDS011;59916;50.914;5.888;2022-08-01T06:21:00;2.77;;;2.00;;
72049;SDS011;59916;50.914;5.888;2022-08-01T06:23:25;3.67;;;2.03;;
72049;SDS011;59916;50.914;5.888;2022-08-01T06:25:54;3.10;;;2.17;;
72049;SDS011;59916;50.914;5.888;2022-08-01T06:28:20;3.42;;;2.13;;
72049;SDS011;59916;50.914;5.888;2022-08-01T06:30:46;3.00;;;2.20;;
72049;SDS011;59916;50.914;5.888;2022-08-01T06:33:11;3.97;;;2.07;;
72049;SDS011;59916;50.914;5.888;2022-08-01T06:35:37;3.57;;;2.20;;
72049;SDS011;59916;50.914;5.888;2022-08-01T06:38:02;3.63;;;2.10;;
72049;SDS011;59916;50.914;5.888;2022-08-01T06:40:28;3.80;;;2.30;;
72049;SDS011;59916;50.914;5.888;2022-08-01T06:42:53;4.10;;;2.23;;
72049;SDS011;59916;50.914;5.888;2022-08-01T06:45:19;4.75;;;2.47;;
72049;SDS011;59916;50.914;5.888;2022-08-01T06:47:47;4.72;;;2.60;;
72049;SDS011;59916;50.914;5.888;2022-08-01T06:50:12;4.40;;;2.53;;
72049;SDS011;59916;50.914;5.888;2022-08-01T06:52:39;5.70;;;2.80;;
72049;SDS011;59916;50.914;5.888;2022-08-01T06:55:05;4.50;;;2.63;;
72049;SDS011;59916;50.914;5.888;2022-08-01T06:57:31;4.00;;;2.60;;
72049;SDS011;59916;50.914;5.888;2022-08-01T06:59:56;4.67;;;2.90;;
72049;SDS011;59916;50.914;5.888;2022-08-01T07:02:22;3.95;;;2.50;;
72049;SDS011;59916;50.914;5.888;2022-08-01T07:04:48;4.40;;;2.40;;
72049;SDS011;59916;50.914;5.888;2022-08-01T07:07:13;4.23;;;2.40;;
72049;SDS011;59916;50.914;5.888;2022-08-01T07:09:38;5.07;;;3.07;;
72049;SDS011;59916;50.914;5.888;2022-08-01T07:12:06;5.40;;;2.90;;
72049;SDS011;59916;50.914;5.888;2022-08-01T07:14:32;3.30;;;2.55;;
72049;SDS011;59916;50.914;5.888;2022-08-01T07:16:57;4.50;;;2.47;;
72049;SDS011;59916;50.914;5.888;2022-08-01T07:19:22;3.93;;;2.70;;
72049;SDS011;59916;50.914;5.888;2022-08-01T07:21:48;3.90;;;2.50;;
72049;SDS011;59916;50.914;5.888;2022-08-01T07:24:13;5.35;;;3.20;;
72049;SDS011;59916;50.914;5.888;2022-08-01T07:26:43;4.82;;;3.20;;
72049;SDS011;59916;50.914;5.888;2022-08-01T07:29:10;5.53;;;3.60;;
72049;SDS011;59916;50.914;5.888;2022-08-01T07:31:41;8.90;;;5.17;;
72049;SDS011;59916;50.914;5.888;2022-08-01T07:34:07;8.60;;;4.97;;
72049;SDS011;59916;50.914;5.888;2022-08-01T07:36:32;10.07;;;6.23;;
72049;SDS011;59916;50.914;5.888;2022-08-01T07:38:57;10.67;;;6.47;;
72049;SDS011;59916;50.914;5.888;2022-08-01T07:41:23;11.80;;;5.80;;
72049;SDS011;59916;50.914;5.888;2022-08-01T07:43:48;10.00;;;6.03;;
72049;SDS011;59916;50.914;5.888;2022-08-01T07:46:14;14.30;;;6.40;;
72049;SDS011;59916;50.914;5.888;2022-08-01T07:48:39;9.80;;;5.90;;
72049;SDS011;59916;50.914;5.888;2022-08-01T07:51:05;10.27;;;5.80;;
72049;SDS011;59916;50.914;5.888;2022-08-01T07:53:30;12.37;;;6.17;;
72049;SDS011;59916;50.914;5.888;2022-08-01T07:55:55;10.97;;;6.30;;
72049;SDS011;59916;50.914;5.888;2022-08-01T07:58:21;12.03;;;6.33;;
72049;SDS011;59916;50.914;5.888;2022-08-01T08:00:46;12.27;;;6.23;;
72049;SDS011;59916;50.914;5.888;2022-08-01T08:03:11;11.23;;;6.20;;
72049;SDS011;59916;50.914;5.888;2022-08-01T08:05:37;11.10;;;5.97;;
72049;SDS011;59916;50.914;5.888;2022-08-01T08:08:04;11.90;;;6.10;;
72049;SDS011;59916;50.914;5.888;2022-08-01T08:10:30;9.23;;;5.50;;
72049;SDS011;59916;50.914;5.888;2022-08-01T08:12:55;8.50;;;5.50;;
72049;SDS011;59916;50.914;5.888;2022-08-01T08:15:21;10.53;;;5.10;;
72049;SDS011;59916;50.914;5.888;2022-08-01T08:17:46;8.57;;;4.77;;
72049;SDS011;59916;50.914;5.888;2022-08-01T08:20:11;8.83;;;4.93;;
72049;SDS011;59916;50.914;5.888;2022-08-01T08:22:37;9.17;;;5.07;;
72049;SDS011;59916;50.914;5.888;2022-08-01T08:25:02;8.93;;;5.10;;
72049;SDS011;59916;50.914;5.888;2022-08-01T08:27:28;7.97;;;5.53;;
72049;SDS011;59916;50.914;5.888;2022-08-01T08:29:53;8.73;;;5.17;;
72049;SDS011;59916;50.914;5.888;2022-08-01T08:32:19;8.30;;;5.10;;
72049;SDS011;59916;50.914;5.888;2022-08-01T08:34:44;10.00;;;5.40;;
72049;SDS011;59916;50.914;5.888;2022-08-01T08:37:09;8.40;;;5.10;;
72049;SDS011;59916;50.914;5.888;2022-08-01T08:39:35;10.80;;;5.87;;
72049;SDS011;59916;50.914;5.888;2022-08-01T08:42:01;10.30;;;5.97;;
72049;SDS011;59916;50.914;5.888;2022-08-01T08:44:30;8.93;;;5.65;;
72049;SDS011;59916;50.914;5.888;2022-08-01T08:46:56;8.93;;;5.80;;
72049;SDS011;59916;50.914;5.888;2022-08-01T08:49:27;9.07;;;6.00;;
72049;SDS011;59916;50.914;5.888;2022-08-01T08:51:53;10.68;;;5.95;;
72049;SDS011;59916;50.914;5.888;2022-08-01T08:54:23;9.48;;;6.60;;
72049;SDS011;59916;50.914;5.888;2022-08-01T08:56:49;10.40;;;6.67;;
72049;SDS011;59916;50.914;5.888;2022-08-01T08:59:16;10.85;;;6.60;;
72049;SDS011;59916;50.914;5.888;2022-08-01T09:01:42;10.67;;;6.27;;
72049;SDS011;59916;50.914;5.888;2022-08-01T09:04:08;9.23;;;6.72;;
72049;SDS011;59916;50.914;5.888;2022-08-01T09:06:34;9.90;;;6.50;;
72049;SDS011;59916;50.914;5.888;2022-08-01T09:08:59;13.73;;;7.07;;
72049;SDS011;59916;50.914;5.888;2022-08-01T09:11:25;15.18;;;7.03;;
72049;SDS011;59916;50.914;5.888;2022-08-01T09:14:10;16.80;;;7.43;;
72049;SDS011;59916;50.914;5.888;2022-08-01T09:16:41;12.60;;;6.85;;
72049;SDS011;59916;50.914;5.888;2022-08-01T09:19:15;11.35;;;6.50;;
72049;SDS011;59916;50.914;5.888;2022-08-01T09:21:55;11.03;;;6.97;;
72049;SDS011;59916;50.914;5.888;2022-08-01T09:24:25;12.68;;;6.47;;
72049;SDS011;59916;50.914;5.888;2022-08-01T09:26:52;10.43;;;6.35;;
72049;SDS011;59916;50.914;5.888;2022-08-01T09:29:28;10.70;;;6.25;;
72049;SDS011;59916;50.914;5.888;2022-08-01T09:31:56;11.00;;;6.45;;
72049;SDS011;59916;50.914;5.888;2022-08-01T09:34:28;9.83;;;6.27;;
72049;SDS011;59916;50.914;5.888;2022-08-01T09:36:56;9.75;;;5.72;;
72049;SDS011;59916;50.914;5.888;2022-08-01T09:39:24;8.73;;;5.78;;
72049;SDS011;59916;50.914;5.888;2022-08-01T09:42:20;9.82;;;5.97;;
72049;SDS011;59916;50.914;5.888;2022-08-01T09:44:52;8.20;;;5.60;;
72049;SDS011;59916;50.914;5.888;2022-08-01T09:47:18;7.97;;;5.40;;
72049;SDS011;59916;50.914;5.888;2022-08-01T09:49:45;8.73;;;5.60;;
72049;SDS011;59916;50.914;5.888;2022-08-01T09:52:18;7.72;;;5.60;;
72049;SDS011;59916;50.914;5.888;2022-08-01T09:55:20;7.32;;;5.18;;
72049;SDS011;59916;50.914;5.888;2022-08-01T09:57:55;7.63;;;5.20;;
72049;SDS011;59916;50.914;5.888;2022-08-01T10:00:21;7.50;;;5.05;;
72049;SDS011;59916;50.914;5.888;2022-08-01T10:02:46;7.37;;;5.20;;
72049;SDS011;59916;50.914;5.888;2022-08-01T10:05:11;7.63;;;5.60;;
72049;SDS011;59916;50.914;5.888;2022-08-01T10:07:54;8.53;;;5.50;;
72049;SDS011;59916;50.914;5.888;2022-08-01T10:10:21;7.53;;;4.93;;
72049;SDS011;59916;50.914;5.888;2022-08-01T10:12:46;8.10;;;5.40;;
72049;SDS011;59916;50.914;5.888;2022-08-01T10:15:15;7.32;;;4.90;;
72049;SDS011;59916;50.914;5.888;2022-08-01T10:17:42;7.68;;;4.85;;
72049;SDS011;59916;50.914;5.888;2022-08-01T10:20:16;7.27;;;5.10;;
72049;SDS011;59916;50.914;5.888;2022-08-01T10:22:45;8.43;;;5.05;;
72049;SDS011;59916;50.914;5.888;2022-08-01T10:25:11;7.43;;;5.47;;
72049;SDS011;59916;50.914;5.888;2022-08-01T10:27:42;6.65;;;4.68;;
72049;SDS011;59916;50.914;5.888;2022-08-01T10:30:10;6.53;;;4.80;;
72049;SDS011;59916;50.914;5.888;2022-08-01T10:32:36;6.40;;;4.60;;
72049;SDS011;59916;50.914;5.888;2022-08-01T10:35:03;7.32;;;5.25;;
72049;SDS011;59916;50.914;5.888;2022-08-01T10:37:29;6.30;;;4.68;;
72049;SDS011;59916;50.914;5.888;2022-08-01T10:39:54;6.73;;;5.43;;
72049;SDS011;59916;50.914;5.888;2022-08-01T10:42:20;6.33;;;4.50;;
72049;SDS011;59916;50.914;5.888;2022-08-01T10:44:49;7.95;;;5.05;;
72049;SDS011;59916;50.914;5.888;2022-08-01T10:47:21;6.78;;;4.90;;
72049;SDS011;59916;50.914;5.888;2022-08-01T10:49:56;6.80;;;5.10;;
72049;SDS011;59916;50.914;5.888;2022-08-01T10:52:36;7.22;;;4.78;;
72049;SDS011;59916;50.914;5.888;2022-08-01T10:55:05;6.33;;;4.87;;
72049;SDS011;59916;50.914;5.888;2022-08-01T10:57:41;6.50;;;4.90;;
72049;SDS011;59916;50.914;5.888;2022-08-01T11:00:08;6.45;;;4.72;;
72049;SDS011;59916;50.914;5.888;2022-08-01T11:02:33;6.55;;;4.95;;
72049;SDS011;59916;50.914;5.888;2022-08-01T11:05:04;6.53;;;5.07;;
72049;SDS011;59916;50.914;5.888;2022-08-01T11:07:53;6.67;;;4.53;;
72049;SDS011;59916;50.914;5.888;2022-08-01T11:10:24;6.07;;;4.70;;
72049;SDS011;59916;50.914;5.888;2022-08-01T11:12:54;7.35;;;4.85;;
72049;SDS011;59916;50.914;5.888;2022-08-01T11:15:20;6.03;;;4.83;;
72049;SDS011;59916;50.914;5.888;2022-08-01T11:17:52;7.00;;;4.90;;
72049;SDS011;59916;50.914;5.888;2022-08-01T11:20:22;6.30;;;4.75;;
72049;SDS011;59916;50.914;5.888;2022-08-01T11:30:38;8.05;;;4.70;;
72049;SDS011;59916;50.914;5.888;2022-08-01T11:33:03;6.57;;;5.07;;
72049;SDS011;59916;50.914;5.888;2022-08-01T11:35:30;5.47;;;4.70;;
72049;SDS011;59916;50.914;5.888;2022-08-01T11:37:56;6.20;;;5.17;;
72049;SDS011;59916;50.914;5.888;2022-08-01T11:40:30;7.03;;;4.87;;
72049;SDS011;59916;50.914;5.888;2022-08-01T11:45:51;6.13;;;5.10;;
72049;SDS011;59916;50.914;5.888;2022-08-01T11:48:20;5.60;;;4.70;;
72049;SDS011;59916;50.914;5.888;2022-08-01T11:50:47;6.18;;;5.07;;
72049;SDS011;59916;50.914;5.888;2022-08-01T11:53:14;6.45;;;5.20;;
72049;SDS011;59916;50.914;5.888;2022-08-01T11:55:43;6.30;;;4.87;;
72049;SDS011;59916;50.914;5.888;2022-08-01T11:58:11;5.60;;;4.78;;
72049;SDS011;59916;50.914;5.888;2022-08-01T12:00:36;6.10;;;4.97;;
72049;SDS011;59916;50.914;5.888;2022-08-01T12:03:05;5.60;;;4.55;;
72049;SDS011;59916;50.914;5.888;2022-08-01T12:05:33;5.93;;;4.80;;
72049;SDS011;59916;50.914;5.888;2022-08-01T12:08:01;5.40;;;4.60;;
72049;SDS011;59916;50.914;5.888;2022-08-01T12:10:28;5.63;;;4.38;;
72049;SDS011;59916;50.914;5.888;2022-08-01T12:16:31;5.40;;;4.28;;
72049;SDS011;59916;50.914;5.888;2022-08-01T12:19:00;7.32;;;4.63;;
72049;SDS011;59916;50.914;5.888;2022-08-01T12:21:25;7.63;;;4.47;;
72049;SDS011;59916;50.914;5.888;2022-08-01T12:24:00;5.22;;;4.40;;
72049;SDS011;59916;50.914;5.888;2022-08-01T12:26:38;5.17;;;4.47;;
72049;SDS011;59916;50.914;5.888;2022-08-01T12:29:06;5.90;;;4.70;;
72049;SDS011;59916;50.914;5.888;2022-08-01T12:31:32;4.75;;;4.15;;
72049;SDS011;59916;50.914;5.888;2022-08-01T12:34:24;6.07;;;4.40;;
72049;SDS011;59916;50.914;5.888;2022-08-01T12:36:52;6.80;;;4.43;;
72049;SDS011;59916;50.914;5.888;2022-08-01T12:39:19;5.65;;;4.82;;
72049;SDS011;59916;50.914;5.888;2022-08-01T12:41:44;5.33;;;4.43;;
72049;SDS011;59916;50.914;5.888;2022-08-01T12:44:13;5.53;;;4.40;;
72049;SDS011;59916;50.914;5.888;2022-08-01T12:46:42;5.53;;;4.13;;
72049;SDS011;59916;50.914;5.888;2022-08-01T12:49:07;6.18;;;4.15;;
72049;SDS011;59916;50.914;5.888;2022-08-01T12:51:33;4.93;;;4.10;;
72049;SDS011;59916;50.914;5.888;2022-08-01T12:53:59;6.25;;;4.35;;
72049;SDS011;59916;50.914;5.888;2022-08-01T12:56:31;5.37;;;4.20;;
72049;SDS011;59916;50.914;5.888;2022-08-01T12:58:57;5.55;;;4.25;;
72049;SDS011;59916;50.914;5.888;2022-08-01T13:01:27;4.50;;;3.55;;
72049;SDS011;59916;50.914;5.888;2022-08-01T13:03:57;5.63;;;4.70;;
72049;SDS011;59916;50.914;5.888;2022-08-01T13:06:29;4.75;;;4.20;;
72049;SDS011;59916;50.914;5.888;2022-08-01T13:08:55;4.90;;;4.20;;
72049;SDS011;59916;50.914;5.888;2022-08-01T13:11:32;5.30;;;4.32;;
72049;SDS011;59916;50.914;5.888;2022-08-01T13:13:57;5.30;;;4.40;;
72049;SDS011;59916;50.914;5.888;2022-08-01T13:16:24;4.85;;;3.85;;
72049;SDS011;59916;50.914;5.888;2022-08-01T13:18:51;4.82;;;4.05;;
72049;SDS011;59916;50.914;5.888;2022-08-01T13:21:22;5.30;;;4.30;;
72049;SDS011;59916;50.914;5.888;2022-08-01T13:24:07;4.90;;;4.05;;
72049;SDS011;59916;50.914;5.888;2022-08-01T13:31:41;4.20;;;3.60;;
72049;SDS011;59916;50.914;5.888;2022-08-01T13:34:08;5.47;;;4.20;;
72049;SDS011;59916;50.914;5.888;2022-08-01T13:36:35;6.25;;;4.15;;
72049;SDS011;59916;50.914;5.888;2022-08-01T13:39:01;4.68;;;3.67;;
72049;SDS011;59916;50.914;5.888;2022-08-01T13:41:46;5.45;;;4.13;;
72049;SDS011;59916;50.914;5.888;2022-08-01T13:44:12;4.90;;;4.00;;
72049;SDS011;59916;50.914;5.888;2022-08-01T13:46:38;5.22;;;3.88;;
72049;SDS011;59916;50.914;5.888;2022-08-01T13:49:04;5.53;;;3.60;;
72049;SDS011;59916;50.914;5.888;2022-08-01T13:51:31;4.60;;;3.83;;
72049;SDS011;59916;50.914;5.888;2022-08-01T13:53:57;4.95;;;4.28;;
72049;SDS011;59916;50.914;5.888;2022-08-01T13:56:23;5.17;;;3.77;;
72049;SDS011;59916;50.914;5.888;2022-08-01T13:58:48;3.97;;;3.50;;
72049;SDS011;59916;50.914;5.888;2022-08-01T14:01:14;4.77;;;3.70;;
72049;SDS011;59916;50.914;5.888;2022-08-01T14:03:39;5.03;;;3.75;;
72049;SDS011;59916;50.914;5.888;2022-08-01T14:06:05;4.87;;;4.20;;
72049;SDS011;59916;50.914;5.888;2022-08-01T14:08:31;4.38;;;3.65;;
72049;SDS011;59916;50.914;5.888;2022-08-01T14:10:56;4.50;;;3.63;;
72049;SDS011;59916;50.914;5.888;2022-08-01T14:13:23;4.70;;;3.63;;
72049;SDS011;59916;50.914;5.888;2022-08-01T14:15:49;4.07;;;3.10;;
72049;SDS011;59916;50.914;5.888;2022-08-01T14:18:15;4.95;;;3.47;;
72049;SDS011;59916;50.914;5.888;2022-08-01T14:20:41;4.20;;;3.80;;
72049;SDS011;59916;50.914;5.888;2022-08-01T14:23:06;4.13;;;3.50;;
72049;SDS011;59916;50.914;5.888;2022-08-01T14:25:32;5.50;;;4.20;;
72049;SDS011;59916;50.914;5.888;2022-08-01T14:27:57;4.40;;;3.30;;
72049;SDS011;59916;50.914;5.888;2022-08-01T14:30:23;4.30;;;3.50;;
72049;SDS011;59916;50.914;5.888;2022-08-01T14:32:48;4.47;;;3.87;;
72049;SDS011;59916;50.914;5.888;2022-08-01T14:35:13;4.23;;;3.70;;
72049;SDS011;59916;50.914;5.888;2022-08-01T14:37:38;4.20;;;3.60;;
72049;SDS011;59916;50.914;5.888;2022-08-01T14:40:04;4.70;;;3.50;;
72049;SDS011;59916;50.914;5.888;2022-08-01T14:42:33;4.80;;;3.50;;
72049;SDS011;59916;50.914;5.888;2022-08-01T14:45:00;4.00;;;3.28;;
72049;SDS011;59916;50.914;5.888;2022-08-01T14:47:25;4.27;;;3.40;;
72049;SDS011;59916;50.914;5.888;2022-08-01T14:49:50;4.93;;;3.50;;
72049;SDS011;59916;50.914;5.888;2022-08-01T14:52:16;3.90;;;3.37;;
72049;SDS011;59916;50.914;5.888;2022-08-01T14:54:41;3.80;;;3.17;;
72049;SDS011;59916;50.914;5.888;2022-08-01T14:57:07;4.90;;;3.30;;
72049;SDS011;59916;50.914;5.888;2022-08-01T14:59:32;4.10;;;3.33;;
72049;SDS011;59916;50.914;5.888;2022-08-01T15:01:57;4.20;;;3.30;;
72049;SDS011;59916;50.914;5.888;2022-08-01T15:04:23;3.57;;;3.17;;
72049;SDS011;59916;50.914;5.888;2022-08-01T15:06:48;4.50;;;3.23;;
72049;SDS011;59916;50.914;5.888;2022-08-01T15:09:13;3.80;;;3.15;;
72049;SDS011;59916;50.914;5.888;2022-08-01T15:11:39;3.60;;;3.00;;
72049;SDS011;59916;50.914;5.888;2022-08-01T15:14:04;3.60;;;3.10;;
72049;SDS011;59916;50.914;5.888;2022-08-01T15:16:48;4.05;;;3.22;;